Time;durP1;ratioP1;P1;durP2;ratioP2;P2;SDS_P1;SDS_P2;PMS_P1;PMS_P2;Temp;Humidity;BMP_temperature;BMP_pressure;BME280_temperature;BME280_humidity;BME280_pressure;Samples;Min_cycle;Max_cycle;Signal;HPM_P1;HPM_P2
2022/06/14 00:01:59;;;;;;;6.40;2.10;;;;;;;;;;5065137;28;20087;-61
2022/06/14 00:04:25;;;;;;;7.40;2.50;;;22.60;77.90;;;;;;5066801;28;20033;-61
2022/06/14 00:06:50;;;;;;;8.02;2.33;;;22.90;78.10;;;;;;5071674;28;20074;-61
2022/06/14 00:09:16;;;;;;;6.55;2.50;;;22.80;78.10;;;;;;5072375;28;20064;-61
2022/06/14 00:11:43;;;;;;;6.45;2.30;;;;;;;;;;5073196;28;20124;-61
2022/06/14 00:14:09;;;;;;;7.32;2.17;;;22.80;78.10;;;;;;5074616;28;20041;-62
2022/06/14 00:16:35;;;;;;;7.05;2.45;;;22.60;77.80;;;;;;5065427;28;20056;-62
2022/06/14 00:19:01;;;;;;;8.02;2.63;;;22.80;78.00;;;;;;5072911;28;20045;-61
2022/06/14 00:21:27;;;;;;;5.82;2.10;;;;;;;;;;5067882;28;20555;-61
2022/06/14 00:23:53;;;;;;;7.80;2.35;;;22.70;77.90;;;;;;5071740;28;20084;-61
2022/06/14 00:26:19;;;;;;;8.23;2.50;;;22.70;77.80;;;;;;5072766;28;20149;-61
2022/06/14 00:28:45;;;;;;;6.57;2.03;;;22.70;77.90;;;;;;5077453;28;20057;-62
2022/06/14 00:31:13;;;;;;;4.57;1.83;;;22.70;74.60;;;;;;5071403;28;20082;-61
2022/06/14 00:33:39;;;;;;;5.13;2.00;;;22.80;77.80;;;;;;5055237;28;20053;-61
2022/06/14 00:36:07;;;;;;;6.97;1.98;;;22.70;74.70;;;;;;5072333;28;20477;-62
2022/06/14 00:38:33;;;;;;;6.40;2.10;;;22.80;78.10;;;;;;5065172;28;20082;-61
2022/06/14 00:40:59;;;;;;;5.63;2.35;;;23.00;75.30;;;;;;5072517;28;20080;-61
2022/06/14 00:43:26;;;;;;;6.43;2.40;;;22.90;75.20;;;;;;5075892;28;20041;-61
2022/06/14 00:45:52;;;;;;;6.93;1.90;;;22.60;77.80;;;;;;5063385;28;20446;-61
2022/06/14 00:48:24;;;;;;;5.72;2.30;;;22.80;77.90;;;;;;5075744;28;20406;-61
2022/06/14 00:51:00;;;;;;;7.18;2.40;;;22.70;77.70;;;;;;5035312;28;20041;-62
2022/06/14 00:53:46;;;;;;;5.55;2.10;;;22.50;75.10;;;;;;5084878;28;20398;-62
2022/06/14 00:56:18;;;;;;;9.73;2.38;;;22.60;77.70;;;;;;5068487;28;20032;-61
2022/06/14 00:58:50;;;;;;;5.07;2.33;;;22.60;77.80;;;;;;5069391;28;20037;-61
2022/06/14 01:01:19;;;;;;;6.22;2.08;;;22.60;77.70;;;;;;5073652;28;20040;-62
2022/06/14 01:03:54;;;;;;;6.82;2.10;;;22.60;77.60;;;;;;5060493;28;20056;-61
2022/06/14 01:06:41;;;;;;;7.40;2.00;;;22.60;77.80;;;;;;5072754;28;20048;-62
2022/06/14 01:09:12;;;;;;;4.80;2.00;;;22.60;77.70;;;;;;5073274;28;20056;-62
2022/06/14 01:11:47;;;;;;;6.85;2.13;;;22.50;77.60;;;;;;5057084;28;20123;-61
2022/06/14 01:14:16;;;;;;;7.22;2.30;;;22.70;77.80;;;;;;5062604;28;20053;-62
2022/06/14 01:16:41;;;;;;;8.32;2.22;;;22.50;77.70;;;;;;5072152;28;20050;-61
2022/06/14 01:19:11;;;;;;;5.68;2.13;;;22.70;74.80;;;;;;5074287;28;20133;-61
2022/06/14 01:21:37;;;;;;;7.65;2.10;;;22.70;77.90;;;;;;5044204;28;20041;-61
2022/06/14 01:24:03;;;;;;;6.20;2.03;;;22.40;74.80;;;;;;5070516;28;20062;-62
2022/06/14 01:26:28;;;;;;;5.85;2.35;;;22.30;77.60;;;;;;5072133;28;20398;-61
2022/06/14 01:28:59;;;;;;;7.53;2.38;;;22.80;75.00;;;;;;5042683;28;20072;-61
2022/06/14 01:31:25;;;;;;;6.13;2.03;;;;;;;;;;5026007;28;20432;-61
2022/06/14 01:33:54;;;;;;;5.55;2.20;;;22.60;77.80;;;;;;5067085;28;20045;-61
2022/06/14 01:36:26;;;;;;;6.72;2.17;;;22.60;75.20;;;;;;5056520;28;20394;-61
2022/06/14 01:38:51;;;;;;;6.65;2.60;;;22.10;77.50;;;;;;5072654;28;20044;-61
2022/06/14 01:41:37;;;;;;;6.53;2.33;;;22.40;77.70;;;;;;5047130;28;20509;-61
2022/06/14 01:44:33;;;;;;;6.38;1.80;;;22.40;77.70;;;;;;5057201;28;20053;-61
2022/06/14 01:46:59;;;;;;;5.78;2.25;;;22.60;77.90;;;;;;5073498;28;20485;-62
2022/06/14 01:52:46;;;;;;;6.28;2.22;;;22.60;74.00;;;;;;5069725;28;20055;-61
2022/06/14 01:55:15;;;;;;;4.35;1.85;;;22.20;74.30;;;;;;5080987;28;20044;-61
2022/06/14 01:57:53;;;;;;;6.43;2.30;;;22.40;72.90;;;;;;5069874;28;20402;-62
2022/06/14 02:00:32;;;;;;;5.78;2.65;;;22.50;77.80;;;;;;5064193;28;20048;-62
2022/06/14 02:05:56;;;;;;;6.47;2.33;;;22.30;77.70;;;;;;5079670;28;20433;-61
2022/06/14 02:08:24;;;;;;;6.70;2.25;;;22.50;75.20;;;;;;5086351;28;20122;-61
2022/06/14 02:11:04;;;;;;;6.68;1.90;;;22.40;77.90;;;;;;5070168;28;20044;-61
2022/06/14 02:13:49;;;;;;;7.07;2.28;;;22.30;77.70;;;;;;5070897;28;20044;-62
2022/06/14 02:16:37;;;;;;;6.47;2.13;;;22.10;77.50;;;;;;5074768;28;20053;-61
2022/06/14 02:19:07;;;;;;;5.10;2.00;;;22.60;75.20;;;;;;5038756;28;20057;-61
2022/06/14 02:21:41;;;;;;;7.30;2.20;;;22.20;77.60;;;;;;5060104;28;20044;-61
2022/06/14 02:24:16;;;;;;;7.78;2.30;;;22.20;77.70;;;;;;5051249;28;20055;-61
2022/06/14 02:26:51;;;;;;;7.22;2.22;;;22.20;72.80;;;;;;5072698;28;20442;-62
2022/06/14 02:29:21;;;;;;;6.45;2.58;;;22.30;75.30;;;;;;5064938;28;20115;-61
2022/06/14 02:31:57;;;;;;;6.07;1.90;;;22.30;74.40;;;;;;5050262;28;20089;-61
2022/06/14 02:34:45;;;;;;;5.53;1.90;;;22.00;74.20;;;;;;5085043;28;20079;-62
2022/06/14 02:37:25;;;;;;;8.13;2.38;;;22.20;77.60;;;;;;5007265;28;20042;-61
2022/06/14 02:40:01;;;;;;;6.07;1.92;;;22.30;77.70;;;;;;4987744;28;20519;-61
2022/06/14 02:42:39;;;;;;;7.32;2.30;;;22.10;75.70;;;;;;5011685;28;20065;-62
2022/06/14 02:45:29;;;;;;;5.38;2.28;;;22.10;77.60;;;;;;4963469;28;20523;-63
2022/06/14 02:48:15;;;;;;;5.28;2.00;;;22.00;77.50;;;;;;5010672;28;20070;-62
2022/06/14 02:50:54;;;;;;;6.65;2.20;;;22.20;77.70;;;;;;4994085;28;20114;-61
2022/06/14 02:53:51;;;;;;;5.65;2.00;;;22.10;77.60;;;;;;4996135;28;20061;-61
2022/06/14 02:56:32;;;;;;;5.75;1.80;;;22.30;75.40;;;;;;4986200;28;20474;-61
2022/06/14 02:59:05;;;;;;;7.72;2.08;;;22.30;74.50;;;;;;4993302;28;20049;-61
2022/06/14 03:01:40;;;;;;;6.95;2.30;;;22.30;77.80;;;;;;4995221;28;20065;-61
2022/06/14 03:04:19;;;;;;;6.13;1.88;;;22.20;77.70;;;;;;4994374;28;20049;-62
2022/06/14 03:06:53;;;;;;;8.55;2.38;;;22.10;77.80;;;;;;4992502;28;20061;-61
2022/06/14 03:09:22;;;;;;;6.88;2.20;;;22.10;77.70;;;;;;5009485;28;20524;-61
2022/06/14 03:12:09;;;;;;;6.03;2.38;;;22.30;75.00;;;;;;4993846;28;20053;-61
2022/06/14 03:14:47;;;;;;;6.25;2.40;;;22.10;77.80;;;;;;4987288;28;20129;-62
2022/06/14 03:17:21;;;;;;;6.40;2.05;;;22.20;77.80;;;;;;4957245;28;20058;-62
2022/06/14 03:19:49;;;;;;;6.97;2.20;;;22.30;77.80;;;;;;4978908;28;20051;-62
2022/06/14 03:22:20;;;;;;;8.18;2.13;;;22.50;78.00;;;;;;4954377;28;20063;-61
2022/06/14 03:25:10;;;;;;;5.80;2.00;;;22.00;76.50;;;;;;5010921;28;20052;-62
2022/06/14 03:27:42;;;;;;;5.50;1.90;;;22.10;77.90;;;;;;5068039;28;20044;-61
2022/06/14 03:30:25;;;;;;;8.80;2.78;;;22.00;75.80;;;;;;5085235;28;20043;-63
2022/06/14 03:33:33;;;;;;;8.40;2.20;;;22.30;75.90;;;;;;5062162;28;20117;-61
2022/06/14 03:35:58;;;;;;;4.70;1.85;;;22.50;74.30;;;;;;5074471;28;20435;-62
2022/06/14 03:38:34;;;;;;;7.95;2.72;;;22.20;73.00;;;;;;5073836;28;20071;-64
2022/06/14 03:41:01;;;;;;;7.57;2.60;;;;;;;;;;5063809;28;20100;-61
2022/06/14 03:43:27;;;;;;;7.65;2.45;;;22.20;77.80;;;;;;5062284;28;20036;-62
2022/06/14 03:46:03;;;;;;;5.30;2.13;;;22.20;77.90;;;;;;5076000;28;20398;-62
2022/06/14 03:48:29;;;;;;;6.65;1.95;;;22.30;77.90;;;;;;5072659;28;20098;-61
2022/06/14 03:50:58;;;;;;;7.45;2.10;;;22.30;78.20;;;;;;5069731;28;20047;-62
2022/06/14 03:53:47;;;;;;;6.10;2.08;;;22.40;77.80;;;;;;5070798;28;20052;-62
2022/06/14 03:56:37;;;;;;;7.13;2.15;;;22.20;73.80;;;;;;5074186;28;20037;-62
2022/06/14 03:59:13;;;;;;;8.55;2.38;;;22.20;77.70;;;;;;5059796;28;20048;-62
2022/06/14 04:01:50;;;;;;;5.55;2.42;;;22.50;78.00;;;;;;5060487;28;20127;-61
2022/06/14 04:04:25;;;;;;;5.22;2.22;;;22.40;78.00;;;;;;5088377;28;20032;-61
2022/06/14 04:07:30;;;;;;;6.95;2.45;;;22.40;75.40;;;;;;5055119;28;20044;-61
2022/06/14 04:10:16;;;;;;;6.05;1.80;;;22.50;76.80;;;;;;5070967;28;20056;-62
2022/06/14 04:13:20;;;;;;;7.40;2.17;;;22.30;77.50;;;;;;5071034;28;20056;-63
2022/06/14 04:15:51;;;;;;;;;;;22.20;73.80;;;;;;5060177;28;20037;-61
2022/06/14 04:18:35;;;;;;;5.57;2.30;;;22.50;77.70;;;;;;5075992;28;20390;-61
2022/06/14 04:21:21;;;;;;;6.07;2.35;;;22.30;73.90;;;;;;5075015;28;20048;-61
2022/06/14 04:23:53;;;;;;;8.30;2.72;;;22.50;75.40;;;;;;5079785;28;20075;-61
2022/06/14 04:26:51;;;;;;;6.18;2.78;;;22.20;77.50;;;;;;5075315;28;20081;-61
2022/06/14 04:29:26;;;;;;;7.47;2.35;;;22.40;77.60;;;;;;5064257;28;20502;-61
2022/06/14 04:32:02;;;;;;;7.10;2.38;;;22.20;77.40;;;;;;5044207;28;20413;-61
2022/06/14 04:34:33;;;;;;;8.13;2.90;;;22.50;77.60;;;;;;5058019;28;20044;-62
2022/06/14 04:37:06;;;;;;;7.88;2.42;;;22.50;73.40;;;;;;5056927;28;20479;-62
2022/06/14 04:39:55;;;;;;;7.22;2.30;;;22.40;77.50;;;;;;5056518;28;20059;-61
2022/06/14 04:42:29;;;;;;;7.50;2.22;;;22.50;77.60;;;;;;5037000;28;20090;-62
2022/06/14 04:44:55;;;;;;;6.65;2.03;;;22.50;77.70;;;;;;5038818;28;20064;-61
2022/06/14 04:47:28;;;;;;;8.35;2.75;;;22.50;74.50;;;;;;5058175;28;20040;-61
2022/06/14 04:50:04;;;;;;;6.40;2.20;;;22.60;77.50;;;;;;5041003;28;20202;-61
2022/06/14 04:52:47;;;;;;;9.05;2.83;;;22.70;72.70;;;;;;5038714;28;20052;-62
2022/06/14 04:55:50;;;;;;;8.18;2.10;;;22.80;77.40;;;;;;5043061;28;20047;-61
2022/06/14 04:58:21;;;;;;;6.30;2.33;;;22.70;75.90;;;;;;5053378;28;20053;-61
2022/06/14 05:00:51;;;;;;;6.60;2.75;;;23.00;76.90;;;;;;5036031;28;20048;-61
2022/06/14 05:03:29;;;;;;;11.25;3.63;;;23.10;74.50;;;;;;5031098;28;20098;-61
2022/06/14 05:05:58;;;;;;;6.38;3.33;;;23.50;76.50;;;;;;5022819;28;20076;-61
2022/06/14 05:08:36;;;;;;;5.85;3.08;;;23.40;74.00;;;;;;5012579;28;20057;-61
2022/06/14 05:11:04;;;;;;;6.93;3.65;;;23.60;75.60;;;;;;5000697;28;20048;-61
2022/06/14 05:13:35;;;;;;;6.43;3.47;;;24.00;75.60;;;;;;5052977;28;20406;-61
2022/06/14 05:16:29;;;;;;;8.93;3.85;;;24.00;73.50;;;;;;5019657;28;20423;-61
2022/06/14 05:19:17;;;;;;;8.02;4.43;;;24.10;75.00;;;;;;5008830;28;20096;-61
2022/06/14 05:21:49;;;;;;;9.43;4.82;;;24.10;70.90;;;;;;5033403;28;20510;-61
2022/06/14 05:24:15;;;;;;;;;;;24.40;70.90;;;;;;5033289;28;20038;-61
2022/06/14 05:27:03;;;;;;;10.00;5.05;;;24.70;74.80;;;;;;5033603;28;20411;-61
2022/06/14 05:30:09;;;;;;;8.20;5.10;;;24.80;74.60;;;;;;5015003;28;20076;-62
2022/06/14 05:32:34;;;;;;;9.20;4.47;;;24.70;74.30;;;;;;4984415;28;20129;-61
2022/06/14 05:35:30;;;;;;;7.47;4.43;;;24.80;71.80;;;;;;4991317;28;20129;-61
2022/06/14 05:38:17;;;;;;;7.60;3.78;;;25.00;70.30;;;;;;4991052;28;20058;-61
2022/06/14 05:41:00;;;;;;;6.65;3.75;;;25.10;70.30;;;;;;4983183;28;20101;-61
2022/06/14 05:43:32;;;;;;;8.20;3.70;;;25.10;70.10;;;;;;4977297;28;20457;-61
2022/06/14 05:46:20;;;;;;;7.68;3.67;;;25.30;70.10;;;;;;4991381;28;20045;-62
2022/06/14 05:48:50;;;;;;;7.63;3.67;;;25.10;71.10;;;;;;4964467;28;20046;-61
2022/06/14 05:51:17;;;;;;;6.40;3.25;;;25.30;72.00;;;;;;4964567;28;20042;-62
2022/06/14 05:53:58;;;;;;;6.22;3.67;;;25.30;71.20;;;;;;4973516;28;20461;-61
2022/06/14 05:56:31;;;;;;;6.75;2.92;;;25.40;69.50;;;;;;4982950;28;20066;-61
2022/06/14 05:59:14;;;;;;;7.78;3.47;;;25.20;69.20;;;;;;4982539;28;20034;-62
2022/06/14 06:01:43;;;;;;;5.93;3.15;;;25.40;69.40;;;;;;4975813;28;20117;-62
2022/06/14 06:04:13;;;;;;;6.60;2.72;;;25.60;70.90;;;;;;4991682;28;20038;-62
2022/06/14 06:06:45;;;;;;;5.05;2.85;;;25.70;71.10;;;;;;4975454;28;20413;-62
2022/06/14 06:09:21;;;;;;;5.85;2.97;;;25.70;73.50;;;;;;5043006;28;20048;-62
2022/06/14 06:12:04;;;;;;;7.05;3.20;;;25.80;69.30;;;;;;5082477;28;20079;-61
2022/06/14 06:14:34;;;;;;;7.03;2.78;;;25.70;69.20;;;;;;5065750;28;20037;-61
2022/06/14 06:17:04;;;;;;;6.63;3.08;;;25.60;73.30;;;;;;5071707;28;21588;-61
2022/06/14 06:19:46;;;;;;;7.00;2.90;;;25.50;70.30;;;;;;5072441;28;20072;-63
2022/06/14 06:22:36;;;;;;;6.45;2.92;;;25.80;69.40;;;;;;5063250;28;20039;-62
2022/06/14 06:25:16;;;;;;;5.57;2.58;;;25.60;69.20;;;;;;4957610;28;20233;-62
2022/06/14 06:28:10;;;;;;;4.85;2.40;;;25.50;69.20;;;;;;4992386;28;20062;-61
2022/06/14 06:30:42;;;;;;;6.53;3.28;;;25.40;69.20;;;;;;4945466;29;20052;-61
2022/06/14 06:33:10;;;;;;;5.18;2.30;;;25.40;70.90;;;;;;4921659;29;20060;-61
2022/06/14 06:35:59;;;;;;;5.80;2.28;;;25.70;71.00;;;;;;4918822;29;20051;-61
2022/06/14 06:38:53;;;;;;;5.07;2.63;;;25.50;70.90;;;;;;4925533;29;20115;-62
2022/06/14 06:44:06;;;;;;;6.82;2.80;;;25.80;71.00;;;;;;4937350;29;20058;-61
2022/06/14 06:46:35;;;;;;;5.53;2.75;;;25.60;70.90;;;;;;4936853;29;20094;-62
2022/06/14 06:49:01;;;;;;;9.38;3.35;;;25.80;71.00;;;;;;4937550;29;20085;-61
2022/06/14 06:51:34;;;;;;;8.25;3.28;;;25.70;70.70;;;;;;4937462;29;20112;-62
2022/06/14 06:54:20;;;;;;;7.03;2.88;;;25.80;71.00;;;;;;4911480;29;20433;-62
2022/06/14 06:56:47;;;;;;;6.70;2.70;;;25.60;70.70;;;;;;4918004;29;20134;-63
2022/06/14 06:59:21;;;;;;;6.53;2.88;;;26.00;71.00;;;;;;4930844;28;20044;-61
2022/06/14 07:01:47;;;;;;;6.45;2.85;;;25.70;69.10;;;;;;4965453;28;20054;-62
2022/06/14 07:07:42;;;;;;;5.55;2.80;;;26.20;70.00;;;;;;4964793;28;20055;-62
2022/06/14 07:10:10;;;;;;;5.78;2.53;;;25.90;68.90;;;;;;4978601;28;20404;-62
2022/06/14 07:12:42;;;;;;;6.38;2.80;;;26.00;68.90;;;;;;4992048;28;20058;-62
2022/06/14 07:15:19;;;;;;;5.63;2.85;;;26.20;70.70;;;;;;4973961;28;20039;-61
2022/06/14 07:18:09;;;;;;;11.82;3.13;;;26.20;69.20;;;;;;4991721;28;20117;-61
2022/06/14 07:20:44;;;;;;;7.03;2.67;;;26.20;69.20;;;;;;4990371;28;20459;-61
2022/06/14 07:23:20;;;;;;;5.80;2.53;;;26.10;69.20;;;;;;4991768;28;20050;-62
2022/06/14 07:26:26;;;;;;;6.22;2.50;;;25.80;69.00;;;;;;4980578;28;20082;-61
2022/06/14 07:29:04;;;;;;;5.55;2.55;;;26.10;69.40;;;;;;4975465;28;20083;-61
2022/06/14 07:31:49;;;;;;;6.10;2.70;;;26.20;69.50;;;;;;4991876;28;20050;-61
2022/06/14 07:34:15;;;;;;;6.20;2.83;;;26.30;69.60;;;;;;4991532;28;20046;-61
2022/06/14 07:37:00;;;;;;;6.32;2.80;;;26.20;70.50;;;;;;4974049;28;20114;-62
2022/06/14 07:39:34;;;;;;;6.78;2.45;;;26.40;69.40;;;;;;4990110;28;20058;-62
2022/06/14 07:42:05;;;;;;;9.32;3.00;;;26.00;69.10;;;;;;4976309;28;20121;-62
2022/06/14 07:44:34;;;;;;;8.13;2.67;;;26.10;70.80;;;;;;5014294;28;20052;-62
2022/06/14 07:47:03;;;;;;;6.10;2.80;;;26.00;71.00;;;;;;5081802;28;20041;-63
2022/06/14 07:49:53;;;;;;;6.30;2.47;;;26.00;71.00;;;;;;5051581;28;20379;-62
2022/06/14 07:52:43;;;;;;;5.57;2.30;;;26.10;71.40;;;;;;5071673;28;20490;-63
2022/06/14 07:55:17;;;;;;;8.05;2.47;;;26.30;69.80;;;;;;5066870;28;20049;-61
2022/06/14 07:57:45;;;;;;;6.70;2.90;;;25.90;69.40;;;;;;5062680;28;20047;-61
2022/06/14 08:03:09;;;;;;;7.72;2.85;;;26.00;70.10;;;;;;5071811;28;20047;-62
2022/06/14 08:05:37;;;;;;;7.35;2.75;;;26.10;69.70;;;;;;5078979;28;20398;-61
2022/06/14 08:08:04;;;;;;;9.52;2.85;;;26.10;71.30;;;;;;5063959;28;20127;-62
2022/06/14 08:10:34;;;;;;;7.22;2.55;;;26.10;71.00;;;;;;5075370;28;20048;-62
2022/06/14 08:13:03;;;;;;;7.30;2.80;;;26.00;71.10;;;;;;5053966;28;20117;-62
2022/06/14 08:15:34;;;;;;;7.90;3.10;;;26.00;71.00;;;;;;5075282;28;20059;-62
2022/06/14 08:18:10;;;;;;;8.30;3.15;;;26.30;69.60;;;;;;5042884;28;20072;-61
2022/06/14 08:20:46;;;;;;;7.63;2.63;;;26.10;69.70;;;;;;5076332;28;20449;-62
2022/06/14 08:23:37;;;;;;;11.20;3.55;;;26.20;74.10;;;;;;5070788;28;20083;-62
2022/06/14 08:26:09;;;;;;;6.60;2.70;;;26.30;69.90;;;;;;5075096;28;20402;-62
2022/06/14 08:28:44;;;;;;;8.53;2.83;;;26.30;69.50;;;;;;5075330;28;20048;-62
2022/06/14 08:31:22;;;;;;;7.57;2.90;;;26.20;69.70;;;;;;5071029;28;20271;-61
2022/06/14 08:33:53;;;;;;;7.00;2.80;;;26.20;69.50;;;;;;5042691;28;20128;-62
2022/06/14 08:36:29;;;;;;;8.02;2.72;;;26.10;71.10;;;;;;5074106;28;20048;-61
2022/06/14 08:38:57;;;;;;;8.02;2.80;;;25.90;71.30;;;;;;5072812;28;20049;-61
2022/06/14 08:41:35;;;;;;;7.32;2.60;;;25.90;71.10;;;;;;5074816;28;20056;-62
2022/06/14 08:44:20;;;;;;;6.03;2.67;;;26.00;69.70;;;;;;5073960;28;20118;-61
2022/06/14 08:46:55;;;;;;;6.78;2.70;;;25.90;71.30;;;;;;5043412;28;20049;-62
2022/06/14 08:49:30;;;;;;;6.70;2.65;;;26.20;69.90;;;;;;5069408;28;20056;-62
2022/06/14 08:52:21;;;;;;;7.93;2.80;;;26.10;69.70;;;;;;5074346;28;20047;-70
2022/06/14 08:55:06;;;;;;;8.07;2.58;;;26.00;69.90;;;;;;5073349;28;20060;-61
2022/06/14 08:57:47;;;;;;;6.47;2.63;;;26.00;69.40;;;;;;5060280;28;20114;-62
2022/06/14 09:00:31;;;;;;;7.55;2.80;;;26.20;71.10;;;;;;5060613;28;20448;-62
2022/06/14 09:03:29;;;;;;;8.65;2.63;;;26.00;69.30;;;;;;5071227;28;20506;-65
2022/06/14 09:06:02;;;;;;;6.70;2.45;;;26.00;69.40;;;;;;5052157;28;20052;-72
2022/06/14 09:08:28;;;;;;;6.13;2.60;;;26.20;71.00;;;;;;5074200;28;20071;-72
2022/06/14 09:11:18;;;;;;;11.80;2.33;;;26.30;70.50;;;;;;5072815;28;20040;-61
2022/06/14 09:14:13;;;;;;;8.18;2.55;;;26.30;69.30;;;;;;5075280;28;20466;-61
2022/06/14 09:17:16;;;;;;;9.80;2.88;;;26.30;69.30;;;;;;5068037;28;20462;-61
2022/06/14 09:19:41;;;;;;;13.63;3.22;;;26.20;73.70;;;;;;5073055;28;20048;-61
2022/06/14 09:22:54;;;;;;;11.13;2.95;;;26.20;74.10;;;;;;5062708;28;20041;-62
2022/06/14 09:25:20;;;;;;;15.13;3.63;;;26.40;69.90;;;;;;5052829;28;20072;-61
2022/06/14 09:27:59;;;;;;;14.90;3.40;;;26.30;70.70;;;;;;5034118;28;20058;-62
2022/06/14 09:30:49;;;;;;;14.27;3.75;;;26.20;71.50;;;;;;4981429;28;20081;-63
2022/06/14 09:33:33;;;;;;;13.75;3.15;;;25.30;69.70;;;;;;5048376;28;20506;-61
2022/06/14 09:36:01;;;;;;;17.27;4.63;;;25.90;69.60;;;;;;5051502;28;20037;-61
2022/06/14 09:38:54;;;;;;;11.45;3.65;;;26.00;69.70;;;;;;5047547;28;20088;-61
2022/06/14 09:41:46;;;;;;;;;;;25.90;70.00;;;;;;5052928;28;20044;-61
2022/06/14 09:44:18;;;;;;;11.48;3.67;;;25.90;70.30;;;;;;4990369;28;19921;-62
2022/06/14 09:47:08;;;;;;;14.30;3.78;;;25.70;70.00;;;;;;5012776;28;20066;-61
2022/06/14 09:50:00;;;;;;;11.65;3.90;;;25.70;71.80;;;;;;4997663;28;20050;-61
2022/06/14 09:52:47;;;;;;;9.23;3.45;;;25.60;74.40;;;;;;5014499;28;20061;-62
2022/06/14 09:55:33;;;;;;;11.38;3.35;;;25.80;70.50;;;;;;5026524;28;20056;-61
2022/06/14 09:58:27;;;;;;;14.57;3.90;;;25.60;70.50;;;;;;5032695;28;20084;-61
2022/06/14 10:01:13;;;;;;;13.57;4.15;;;25.60;70.50;;;;;;5073719;28;20055;-61
2022/06/14 10:03:49;;;;;;;18.05;5.35;;;25.40;71.60;;;;;;4991330;28;20125;-61
2022/06/14 10:06:24;;;;;;;20.05;4.80;;;25.30;70.30;;;;;;4992718;28;20497;-62
2022/06/14 10:09:13;;;;;;;15.70;5.05;;;25.40;72.00;;;;;;4992999;28;20129;-61
2022/06/14 10:12:05;;;;;;;14.73;4.20;;;25.60;70.60;;;;;;4990774;28;20046;-61
2022/06/14 10:14:37;;;;;;;17.15;5.05;;;25.20;70.60;;;;;;5000602;28;20053;-62
2022/06/14 10:17:27;;;;;;;18.38;4.60;;;25.40;71.80;;;;;;4972736;28;20527;-62
2022/06/14 10:20:13;;;;;;;12.20;4.60;;;25.40;70.60;;;;;;4973090;28;20058;-61
2022/06/14 10:23:00;;;;;;;13.45;3.70;;;25.40;71.80;;;;;;4973090;28;20066;-61
2022/06/14 10:29:08;;;;;;;46.03;11.60;;;25.20;72.40;;;;;;4973503;28;20051;-62
2022/06/14 10:31:49;;;;;;;34.95;8.85;;;25.10;70.90;;;;;;4958773;28;20039;-61
2022/06/14 10:34:50;;;;;;;35.45;10.10;;;25.20;74.70;;;;;;4974144;28;20137;-61
2022/06/14 10:37:21;;;;;;;29.73;7.65;;;25.30;71.80;;;;;;4972813;28;20094;-61
2022/06/14 10:40:04;;;;;;;31.42;8.10;;;25.20;72.00;;;;;;4976869;28;20043;-61
2022/06/14 10:42:37;;;;;;;27.80;7.97;;;25.40;70.80;;;;;;4993634;28;20045;-61
2022/06/14 10:45:03;;;;;;;23.90;6.47;;;25.30;74.50;;;;;;4993541;28;20529;-61
2022/06/14 10:47:59;;;;;;;30.15;7.47;;;25.20;71.30;;;;;;5010141;28;20050;-61
2022/06/14 10:50:33;;;;;;;23.48;5.60;;;25.10;70.60;;;;;;4995315;28;20117;-61
2022/06/14 10:53:31;;;;;;;19.42;5.43;;;25.20;70.30;;;;;;5011318;28;20573;-61
2022/06/14 10:56:11;;;;;;;17.50;5.38;;;25.20;70.20;;;;;;4933084;29;20130;-61
2022/06/14 10:58:37;;;;;;;16.42;4.97;;;25.40;70.50;;;;;;4934206;29;20048;-62
2022/06/14 11:01:15;;;;;;;16.92;5.28;;;25.30;71.80;;;;;;4934164;29;20044;-61
2022/06/14 11:03:45;;;;;;;19.70;5.55;;;25.40;74.70;;;;;;4916108;29;20181;-61
2022/06/14 11:06:17;;;;;;;14.05;4.28;;;25.30;70.80;;;;;;4933919;29;20169;-68
2022/06/14 11:09:20;;;;;;;16.75;5.40;;;25.20;74.70;;;;;;4930750;29;20051;-61
2022/06/14 11:12:01;;;;;;;14.45;4.30;;;25.30;70.70;;;;;;4961671;28;20055;-61
2022/06/14 11:14:38;;;;;;;14.23;4.25;;;25.00;70.60;;;;;;4972391;28;20058;-61
2022/06/14 11:17:18;;;;;;;14.05;3.90;;;25.20;74.80;;;;;;4953614;28;20047;-61
2022/06/14 11:19:49;;;;;;;14.07;3.70;;;25.20;70.80;;;;;;4961678;28;20065;-62
2022/06/14 11:22:35;;;;;;;15.43;3.88;;;25.10;70.60;;;;;;4971717;28;20221;-61
2022/06/14 11:25:19;;;;;;;11.82;3.88;;;25.20;72.40;;;;;;4957465;28;20517;-61
2022/06/14 11:27:54;;;;;;;9.88;3.58;;;25.40;74.90;;;;;;4955958;28;20051;-61
2022/06/14 11:30:45;;;;;;;10.90;3.70;;;25.30;72.10;;;;;;4956109;28;20448;-61
2022/06/14 11:33:47;;;;;;;10.05;2.95;;;25.40;70.80;;;;;;5055919;28;20044;-62
2022/06/14 11:36:31;;;;;;;9.13;3.28;;;25.10;70.20;;;;;;5043467;28;20099;-61
2022/06/14 11:39:49;;;;;;;9.65;2.45;;;25.40;70.40;;;;;;5030781;28;20519;-61
2022/06/14 11:42:26;;;;;;;9.80;2.50;;;25.40;70.70;;;;;;4956156;28;20061;-61
2022/06/14 11:44:57;;;;;;;10.57;3.05;;;25.50;72.30;;;;;;4959953;28;20065;-61
2022/06/14 11:47:51;;;;;;;9.07;2.53;;;25.50;70.50;;;;;;4975797;28;20130;-61
2022/06/14 11:50:37;;;;;;;8.27;2.63;;;25.30;70.70;;;;;;4956662;28;20138;-61
2022/06/14 11:53:03;;;;;;;9.30;2.80;;;25.60;70.50;;;;;;4942784;29;20051;-61
2022/06/14 11:55:39;;;;;;;7.95;2.97;;;25.30;71.40;;;;;;4966665;28;20481;-62
2022/06/14 11:58:12;;;;;;;9.50;2.92;;;25.30;71.80;;;;;;4959728;28;20055;-61
2022/06/14 12:00:47;;;;;;;9.13;2.50;;;25.40;71.80;;;;;;4958316;28;20085;-61
2022/06/14 12:03:37;;;;;;;9.05;2.60;;;25.30;71.70;;;;;;4975500;28;20061;-61
2022/06/14 12:06:14;;;;;;;6.72;2.22;;;25.10;70.30;;;;;;4970939;28;20046;-61
2022/06/14 12:09:13;;;;;;;7.30;2.40;;;25.20;70.20;;;;;;4975401;28;20058;-61
2022/06/14 12:11:49;;;;;;;22.30;5.82;;;25.30;70.50;;;;;;4957635;28;20078;-61
2022/06/14 12:14:26;;;;;;;13.27;3.40;;;25.20;70.40;;;;;;4941019;29;20462;-61
2022/06/14 12:17:09;;;;;;;18.25;3.92;;;25.10;75.20;;;;;;4995787;28;20059;-62
2022/06/14 12:19:36;;;;;;;18.27;3.78;;;25.30;70.40;;;;;;5053181;28;20426;-61
2022/06/14 12:22:34;;;;;;;14.02;3.75;;;25.20;75.20;;;;;;5055298;28;20120;-61
2022/06/14 12:27:50;;;;;;;14.95;3.50;;;25.30;72.70;;;;;;5068401;28;20441;-61
2022/06/14 12:30:16;;;;;;;26.90;4.45;;;25.20;72.50;;;;;;5074442;28;20044;-61
2022/06/14 12:32:53;;;;;;;16.83;3.60;;;25.00;75.50;;;;;;5072784;28;20056;-61
2022/06/14 12:35:24;;;;;;;9.00;3.22;;;25.20;71.10;;;;;;5074456;28;20044;-61
2022/06/14 12:38:01;;;;;;;12.77;3.20;;;25.20;72.70;;;;;;5045845;28;20516;-62
2022/06/14 12:40:44;;;;;;;11.82;3.20;;;24.90;71.20;;;;;;5058329;28;20086;-61
2022/06/14 12:43:37;;;;;;;8.23;2.80;;;25.10;71.30;;;;;;5058384;28;20051;-61
2022/06/14 12:46:09;;;;;;;8.75;3.28;;;25.00;71.40;;;;;;5055550;28;20059;-60
2022/06/14 12:48:53;;;;;;;10.98;2.90;;;25.10;72.60;;;;;;5041370;28;20041;-61
2022/06/14 12:51:37;;;;;;;9.45;3.10;;;25.10;71.10;;;;;;5055763;28;20450;-61
2022/06/14 12:54:27;;;;;;;9.27;3.05;;;25.20;75.40;;;;;;5055728;28;20045;-61
2022/06/14 12:57:16;;;;;;;10.25;2.97;;;25.30;71.30;;;;;;5055955;28;20051;-61
2022/06/14 13:00:00;;;;;;;9.65;3.45;;;25.40;71.00;;;;;;5048156;28;20072;-61
2022/06/14 13:03:03;;;;;;;8.48;2.67;;;25.40;75.80;;;;;;5045194;28;20059;-61
2022/06/14 13:05:38;;;;;;;6.25;2.47;;;25.60;73.20;;;;;;5071849;28;20049;-61
2022/06/14 13:08:29;;;;;;;7.72;2.38;;;25.40;72.80;;;;;;5056616;28;20397;-61
2022/06/14 13:11:19;;;;;;;8.20;2.70;;;25.40;71.40;;;;;;5051970;28;20043;-61
2022/06/14 13:14:03;;;;;;;8.82;2.72;;;25.50;71.10;;;;;;5037566;28;20051;-60
2022/06/14 13:17:07;;;;;;;8.93;2.63;;;25.50;71.30;;;;;;5037190;28;20462;-61
2022/06/14 13:19:35;;;;;;;8.75;3.28;;;25.60;75.30;;;;;;5056110;28;20079;-61
2022/06/14 13:22:30;;;;;;;8.00;2.78;;;25.40;72.10;;;;;;5075127;28;20056;-61
2022/06/14 13:25:27;;;;;;;11.23;2.70;;;25.40;75.00;;;;;;5066791;28;20044;-60
2022/06/14 13:28:01;;;;;;;11.70;3.05;;;25.50;71.00;;;;;;5072815;28;20045;-60
2022/06/14 13:30:50;;;;;;;7.95;2.70;;;25.40;70.40;;;;;;5071960;28;21547;-61
2022/06/14 13:33:25;;;;;;;10.32;2.80;;;25.50;72.40;;;;;;4973803;28;20065;-61
2022/06/14 13:36:05;;;;;;;7.95;2.28;;;25.60;72.20;;;;;;4984851;28;20065;-60
2022/06/14 13:38:35;;;;;;;11.85;2.65;;;25.60;70.80;;;;;;4977449;28;20062;-61
2022/06/14 13:41:15;;;;;;;7.88;2.85;;;25.90;72.50;;;;;;4987998;28;20459;-60
2022/06/14 13:43:50;;;;;;;7.07;2.25;;;25.60;70.70;;;;;;4976969;28;20496;-61
2022/06/14 13:46:16;;;;;;;6.05;2.20;;;25.80;70.90;;;;;;4993181;28;20054;-61
2022/06/14 13:48:45;;;;;;;6.57;2.30;;;25.60;71.80;;;;;;4993044;28;20130;-61
2022/06/14 13:51:36;;;;;;;7.28;2.20;;;25.50;72.00;;;;;;4976991;28;20067;-61
2022/06/14 13:54:15;;;;;;;6.95;2.33;;;25.70;71.00;;;;;;4957703;28;20473;-61
2022/06/14 13:56:53;;;;;;;6.68;2.20;;;25.70;70.90;;;;;;4958111;28;20138;-60
2022/06/14 13:59:22;;;;;;;5.90;2.20;;;25.50;70.70;;;;;;4957330;28;20105;-61
2022/06/14 14:02:07;;;;;;;7.63;2.25;;;25.70;72.30;;;;;;4958566;28;20130;-61
2022/06/14 14:04:57;;;;;;;8.63;2.65;;;25.60;70.90;;;;;;4992623;28;20054;-61
2022/06/14 14:07:34;;;;;;;8.35;2.15;;;25.90;71.10;;;;;;4991808;28;20046;-61